createdAt,value
2022-08-19T00:00:06.426Z,986.36
2022-08-19T00:01:06.435Z,986.29
2022-08-19T00:02:06.419Z,986.31
2022-08-19T00:03:06.409Z,986.27
2022-08-19T00:04:06.423Z,986.32
2022-08-19T00:05:06.386Z,986.39
2022-08-19T00:06:06.402Z,986.32
2022-08-19T00:07:06.409Z,986.32
2022-08-19T00:08:06.398Z,986.35
2022-08-19T00:09:06.412Z,986.34
2022-08-19T00:10:06.381Z,986.30
2022-08-19T00:11:06.371Z,986.32
2022-08-19T00:12:07.360Z,986.30
2022-08-19T00:13:06.362Z,986.28
2022-08-19T00:14:06.350Z,986.35
2022-08-19T00:15:06.462Z,986.35
2022-08-19T00:16:07.339Z,986.35
2022-08-19T00:17:06.350Z,986.32
2022-08-19T00:18:06.316Z,986.32
2022-08-19T00:19:06.321Z,986.30
2022-08-19T00:20:06.347Z,986.35
2022-08-19T00:21:06.306Z,986.31
2022-08-19T00:22:06.314Z,986.27
2022-08-19T00:23:06.291Z,986.27
2022-08-19T00:24:06.290Z,986.27
2022-08-19T00:25:06.279Z,986.24
2022-08-19T00:26:06.394Z,986.25
2022-08-19T00:27:25.927Z,986.23
2022-08-19T00:28:07.262Z,986.20
2022-08-19T00:29:06.270Z,986.17
2022-08-19T00:30:06.264Z,986.18
2022-08-19T00:31:06.275Z,986.11
2022-08-19T00:32:06.258Z,986.17
2022-08-19T00:33:06.261Z,986.09
2022-08-19T00:34:06.829Z,986.10
2022-08-19T00:35:06.228Z,986.09
2022-08-19T00:36:06.229Z,986.13
2022-08-19T00:37:06.327Z,986.09
2022-08-19T00:38:06.243Z,986.08
2022-08-19T00:39:06.211Z,986.11
2022-08-19T00:40:06.260Z,986.08
2022-08-19T00:41:06.230Z,986.06
2022-08-19T00:42:06.228Z,986.09
2022-08-19T00:43:06.198Z,986.13
2022-08-19T00:44:06.192Z,986.12
2022-08-19T00:45:06.184Z,986.12
2022-08-19T00:46:06.179Z,986.14
2022-08-19T00:47:06.172Z,986.11
2022-08-19T00:48:14.728Z,986.10
2022-08-19T00:49:07.166Z,986.09
2022-08-19T00:50:06.145Z,986.08
2022-08-19T00:51:06.133Z,986.00
2022-08-19T00:52:06.135Z,986.06
2022-08-19T00:53:06.153Z,986.02
2022-08-19T00:54:06.137Z,986.00
2022-08-19T00:55:06.144Z,986.00
2022-08-19T00:56:06.114Z,986.03
2022-08-19T00:57:06.100Z,985.94
2022-08-19T00:58:06.108Z,985.97
2022-08-19T00:59:06.211Z,985.97
2022-08-19T01:00:06.094Z,986.00
2022-08-19T01:01:06.116Z,985.99
2022-08-19T01:02:06.082Z,986.02
2022-08-19T01:03:06.061Z,985.99
2022-08-19T01:04:06.079Z,985.94
2022-08-19T01:05:06.068Z,985.99
2022-08-19T01:06:06.067Z,985.97
2022-08-19T01:07:06.042Z,985.94
2022-08-19T01:08:06.048Z,985.96
2022-08-19T01:09:06.043Z,985.98
2022-08-19T01:10:06.053Z,985.98
2022-08-19T01:11:06.102Z,986.04
2022-08-19T01:12:06.020Z,985.99
2022-08-19T01:13:05.999Z,986.03
2022-08-19T01:14:06.017Z,986.02
2022-08-19T01:15:06.044Z,986.07
2022-08-19T01:16:05.999Z,986.07
2022-08-19T01:17:05.988Z,986.10
2022-08-19T01:18:06.028Z,986.11
2022-08-19T01:19:05.990Z,986.12
2022-08-19T01:20:05.977Z,986.08
2022-08-19T01:21:05.981Z,986.08
2022-08-19T01:22:14.234Z,986.07
2022-08-19T01:23:06.957Z,986.04
2022-08-19T01:24:05.955Z,986.03
2022-08-19T01:25:10.740Z,985.99
2022-08-19T01:26:06.957Z,985.95
2022-08-19T01:27:05.950Z,985.93
2022-08-19T01:28:10.549Z,985.86
2022-08-19T01:29:06.918Z,985.79
2022-08-19T01:30:05.917Z,985.77
2022-08-19T01:31:07.858Z,985.84
2022-08-19T01:32:06.752Z,985.76
2022-08-19T01:33:05.897Z,985.83
2022-08-19T01:34:05.886Z,985.74
2022-08-19T01:35:05.899Z,985.81
2022-08-19T01:36:05.885Z,985.86
2022-08-19T01:37:05.919Z,985.84
2022-08-19T01:38:05.873Z,985.89
2022-08-19T01:39:05.875Z,985.97
2022-08-19T01:40:09.327Z,985.97
2022-08-19T01:41:09.778Z,986.00
2022-08-19T01:42:05.869Z,986.10
2022-08-19T01:43:05.881Z,986.02
2022-08-19T01:44:17.366Z,986.01
2022-08-19T01:45:06.836Z,986.10
2022-08-19T01:46:05.839Z,986.10
2022-08-19T01:47:05.831Z,986.02
2022-08-19T01:48:05.838Z,985.92
2022-08-19T01:49:05.813Z,985.90
2022-08-19T01:50:05.813Z,985.92
2022-08-19T01:51:05.810Z,986.04
2022-08-19T01:52:05.809Z,985.95
2022-08-19T01:53:06.082Z,985.96
2022-08-19T01:54:05.877Z,985.93
2022-08-19T01:55:05.771Z,985.93
2022-08-19T01:56:05.788Z,985.89
2022-08-19T01:57:05.754Z,985.94
2022-08-19T01:58:05.762Z,985.92
2022-08-19T01:59:05.797Z,985.97
2022-08-19T02:00:05.751Z,985.95
2022-08-19T02:01:05.817Z,985.92
2022-08-19T02:02:05.730Z,985.94
2022-08-19T02:03:05.726Z,986.00
2022-08-19T02:04:05.741Z,985.94
2022-08-19T02:05:05.741Z,985.88
2022-08-19T02:06:05.714Z,985.96
2022-08-19T02:07:05.717Z,985.91
2022-08-19T02:08:05.713Z,985.93
2022-08-19T02:09:05.703Z,985.90
2022-08-19T02:10:12.280Z,985.89
2022-08-19T02:11:06.683Z,985.90
2022-08-19T02:12:05.694Z,985.90
2022-08-19T02:13:05.691Z,985.92
2022-08-19T02:14:05.653Z,985.86
2022-08-19T02:15:05.666Z,985.86
2022-08-19T02:16:05.679Z,985.84
2022-08-19T02:17:05.664Z,985.87
2022-08-19T02:18:05.650Z,985.89
2022-08-19T02:19:05.646Z,985.88
2022-08-19T02:20:05.643Z,985.92
2022-08-19T02:21:05.655Z,985.98
2022-08-19T02:22:05.649Z,986.00
2022-08-19T02:23:05.638Z,986.02
2022-08-19T02:24:06.627Z,986.04
2022-08-19T02:25:05.620Z,985.93
2022-08-19T02:26:05.597Z,985.97
2022-08-19T02:27:05.735Z,985.95
2022-08-19T02:28:05.591Z,985.92
2022-08-19T02:29:05.601Z,985.93
2022-08-19T02:30:05.592Z,985.93
2022-08-19T02:31:05.583Z,985.93
2022-08-19T02:32:05.590Z,986.01
2022-08-19T02:33:05.574Z,985.98
2022-08-19T02:34:05.569Z,985.94
2022-08-19T02:35:12.319Z,985.97
2022-08-19T02:36:06.554Z,985.90
2022-08-19T02:37:05.550Z,985.88
2022-08-19T02:38:05.580Z,985.87
2022-08-19T02:39:05.532Z,985.92
2022-08-19T02:40:05.557Z,985.97
2022-08-19T02:41:06.525Z,985.95
2022-08-19T02:42:05.515Z,985.97
2022-08-19T02:43:05.629Z,985.94
2022-08-19T02:44:30.663Z,985.92
2022-08-19T02:45:05.497Z,985.93
2022-08-19T02:46:05.502Z,985.94
2022-08-19T02:47:05.504Z,986.01
2022-08-19T02:48:05.489Z,985.98
2022-08-19T02:49:06.510Z,986.05
2022-08-19T02:50:05.474Z,986.05
2022-08-19T02:51:05.471Z,986.05
2022-08-19T02:52:05.466Z,986.04
2022-08-19T02:53:05.459Z,986.14
2022-08-19T02:54:05.457Z,986.10
2022-08-19T02:55:05.457Z,986.14
2022-08-19T02:56:05.434Z,986.13
2022-08-19T02:57:05.436Z,986.10
2022-08-19T02:58:05.428Z,986.13
2022-08-19T02:59:05.429Z,986.16
2022-08-19T03:00:05.441Z,986.15
2022-08-19T03:01:05.437Z,986.13
2022-08-19T03:02:05.425Z,986.09
2022-08-19T03:03:05.413Z,986.06
2022-08-19T03:04:05.401Z,986.12
2022-08-19T03:05:05.492Z,986.04
2022-08-19T03:06:05.390Z,986.09
2022-08-19T03:07:10.949Z,986.07
2022-08-19T03:08:06.384Z,986.10
2022-08-19T03:09:05.365Z,986.04
2022-08-19T03:10:05.368Z,986.08
2022-08-19T03:11:05.379Z,986.09
2022-08-19T03:12:05.345Z,986.00
2022-08-19T03:13:05.340Z,986.02
2022-08-19T03:14:05.346Z,986.00
2022-08-19T03:15:05.332Z,986.06
2022-08-19T03:16:05.364Z,986.01
2022-08-19T03:17:05.331Z,986.04
2022-08-19T03:18:05.322Z,986.03
2022-08-19T03:19:05.311Z,986.05
2022-08-19T03:20:05.298Z,986.00
2022-08-19T03:21:05.293Z,986.07
2022-08-19T03:22:05.336Z,986.04
2022-08-19T03:23:05.300Z,986.08
2022-08-19T03:24:05.279Z,986.06
2022-08-19T03:25:05.292Z,986.09
2022-08-19T03:26:16.681Z,986.07
2022-08-19T03:27:05.302Z,986.10
2022-08-19T03:28:05.263Z,986.17
2022-08-19T03:29:05.547Z,986.08
2022-08-19T03:30:05.263Z,986.07
2022-08-19T03:31:05.261Z,986.08
2022-08-19T03:32:06.263Z,986.14
2022-08-19T03:33:05.492Z,986.14
2022-08-19T03:34:05.226Z,986.17
2022-08-19T03:35:05.229Z,986.17
2022-08-19T03:36:05.228Z,986.26
2022-08-19T03:37:05.202Z,986.21
2022-08-19T03:38:05.318Z,986.21
2022-08-19T03:39:05.206Z,986.25
2022-08-19T03:40:05.220Z,986.27
2022-08-19T03:41:05.176Z,986.29
2022-08-19T03:42:38.481Z,986.26
2022-08-19T03:43:06.302Z,986.30
2022-08-19T03:44:05.160Z,986.30
2022-08-19T03:45:05.166Z,986.37
2022-08-19T03:46:05.171Z,986.30
2022-08-19T03:47:39.295Z,986.30
2022-08-19T03:48:05.159Z,986.39
2022-08-19T03:49:05.258Z,986.27
2022-08-19T03:50:05.135Z,986.31
2022-08-19T03:51:05.144Z,986.25
2022-08-19T03:52:05.138Z,986.24
2022-08-19T03:53:05.118Z,986.27
2022-08-19T03:54:05.140Z,986.28
2022-08-19T03:55:05.108Z,986.29
2022-08-19T03:56:05.093Z,986.30
2022-08-19T03:57:05.095Z,986.33
2022-08-19T03:58:05.092Z,986.36
2022-08-19T03:59:05.107Z,986.35
2022-08-19T04:00:12.958Z,986.34
2022-08-19T04:01:05.126Z,986.28
2022-08-19T04:02:05.071Z,986.35
2022-08-19T04:03:05.111Z,986.31
2022-08-19T04:04:05.059Z,986.38
2022-08-19T04:05:05.068Z,986.33
2022-08-19T04:06:05.040Z,986.33
2022-08-19T04:07:05.049Z,986.29
2022-08-19T04:08:05.041Z,986.36
2022-08-19T04:09:05.025Z,986.35
2022-08-19T04:10:05.031Z,986.31
2022-08-19T04:11:05.048Z,986.32
2022-08-19T04:12:05.033Z,986.39
2022-08-19T04:13:05.037Z,986.33
2022-08-19T04:14:05.007Z,986.36
2022-08-19T04:15:05.007Z,986.32
2022-08-19T04:16:05.101Z,986.37
2022-08-19T04:17:04.997Z,986.35
2022-08-19T04:18:04.986Z,986.38
2022-08-19T04:19:04.987Z,986.35
2022-08-19T04:20:06.907Z,986.34
2022-08-19T04:21:04.966Z,986.32
2022-08-19T04:22:04.973Z,986.27
2022-08-19T04:23:04.947Z,986.34
2022-08-19T04:24:04.936Z,986.37
2022-08-19T04:25:04.962Z,986.37
2022-08-19T04:26:04.937Z,986.39
2022-08-19T04:27:04.962Z,986.36
2022-08-19T04:28:04.931Z,986.42
2022-08-19T04:29:06.553Z,986.46
2022-08-19T04:30:04.910Z,986.47
2022-08-19T04:31:04.898Z,986.44
2022-08-19T04:32:08.830Z,986.45
2022-08-19T04:33:05.013Z,986.45
2022-08-19T04:34:04.903Z,986.47
2022-08-19T04:35:17.977Z,986.49
2022-08-19T04:36:05.883Z,986.47
2022-08-19T04:37:04.880Z,986.48
2022-08-19T04:38:04.979Z,986.43
2022-08-19T04:39:04.879Z,986.46
2022-08-19T04:40:04.901Z,986.45
2022-08-19T04:41:04.862Z,986.46
2022-08-19T04:42:04.868Z,986.44
2022-08-19T04:43:04.887Z,986.38
2022-08-19T04:44:04.891Z,986.39
2022-08-19T04:45:05.397Z,986.43
2022-08-19T04:46:04.824Z,986.42
2022-08-19T04:47:11.409Z,986.46
2022-08-19T04:48:26.763Z,986.47
2022-08-19T04:49:10.433Z,986.47
2022-08-19T04:50:04.821Z,986.40
2022-08-19T04:51:04.814Z,986.49
2022-08-19T04:52:04.820Z,986.50
2022-08-19T04:53:04.781Z,986.48
2022-08-19T04:54:04.774Z,986.50
2022-08-19T04:55:04.807Z,986.49
2022-08-19T04:56:04.786Z,986.52
2022-08-19T04:57:04.761Z,986.50
2022-08-19T04:58:04.784Z,986.48
2022-08-19T04:59:04.782Z,986.42
2022-08-19T05:00:04.786Z,986.43
2022-08-19T05:01:04.854Z,986.39
2022-08-19T05:02:04.750Z,986.41
2022-08-19T05:03:04.741Z,986.48
2022-08-19T05:04:04.744Z,986.41
2022-08-19T05:05:04.731Z,986.44
2022-08-19T05:06:04.823Z,986.44
2022-08-19T05:07:04.711Z,986.40
2022-08-19T05:08:04.713Z,986.40
2022-08-19T05:09:04.709Z,986.43
2022-08-19T05:10:04.688Z,986.46
2022-08-19T05:11:04.827Z,986.44
2022-08-19T05:12:04.696Z,986.44
2022-08-19T05:13:04.706Z,986.41
2022-08-19T05:14:04.689Z,986.47
2022-08-19T05:15:04.693Z,986.50
2022-08-19T05:16:04.673Z,986.51
2022-08-19T05:17:26.093Z,986.47
2022-08-19T05:18:05.662Z,986.49
2022-08-19T05:19:04.660Z,986.53
2022-08-19T05:20:04.653Z,986.50
2022-08-19T05:21:04.654Z,986.51
2022-08-19T05:22:04.662Z,986.53
2022-08-19T05:23:12.890Z,986.48
2022-08-19T05:24:05.654Z,986.53
2022-08-19T05:25:12.773Z,986.49
2022-08-19T05:26:05.617Z,986.59
2022-08-19T05:27:04.612Z,986.51
2022-08-19T05:28:04.638Z,986.48
2022-08-19T05:29:04.584Z,986.51
2022-08-19T05:30:04.589Z,986.52
2022-08-19T05:31:04.588Z,986.48
2022-08-19T05:32:04.576Z,986.51
2022-08-19T05:33:04.716Z,986.50
2022-08-19T05:34:04.576Z,986.53
2022-08-19T05:35:05.552Z,986.54
2022-08-19T05:36:04.577Z,986.57
2022-08-19T05:37:04.566Z,986.51
2022-08-19T05:38:04.544Z,986.60
2022-08-19T05:39:04.571Z,986.51
2022-08-19T05:40:04.620Z,986.52
2022-08-19T05:41:04.527Z,986.51
2022-08-19T05:42:04.540Z,986.58
2022-08-19T05:43:04.517Z,986.50
2022-08-19T05:44:04.654Z,986.47
2022-08-19T05:45:04.519Z,986.53
2022-08-19T05:46:04.501Z,986.50
2022-08-19T05:47:04.493Z,986.52
2022-08-19T05:48:04.489Z,986.50
2022-08-19T05:49:04.508Z,986.50
2022-08-19T05:50:05.150Z,986.48
2022-08-19T05:51:04.486Z,986.46
2022-08-19T05:52:04.468Z,986.46
2022-08-19T05:53:04.482Z,986.53
2022-08-19T05:54:04.458Z,986.54
2022-08-19T05:55:04.493Z,986.48
2022-08-19T05:56:04.455Z,986.53
2022-08-19T05:57:04.461Z,986.47
2022-08-19T05:58:04.446Z,986.53
2022-08-19T05:59:04.458Z,986.60
2022-08-19T06:00:04.421Z,986.54
2022-08-19T06:01:04.459Z,986.52
2022-08-19T06:02:04.413Z,986.52
2022-08-19T06:03:04.411Z,986.55
2022-08-19T06:04:04.399Z,986.60
2022-08-19T06:05:04.414Z,986.62
2022-08-19T06:06:04.429Z,986.59
2022-08-19T06:07:12.310Z,986.72
2022-08-19T06:08:04.390Z,986.73
2022-08-19T06:09:04.396Z,986.73
2022-08-19T06:10:04.372Z,986.70
2022-08-19T06:11:04.359Z,986.71
2022-08-19T06:12:05.360Z,986.67
2022-08-19T06:13:06.339Z,986.73
2022-08-19T06:14:05.475Z,986.72
2022-08-19T06:15:05.468Z,986.76
2022-08-19T06:16:06.847Z,986.75
2022-08-19T06:17:07.111Z,986.82
2022-08-19T06:18:05.345Z,986.79
2022-08-19T06:19:04.333Z,986.83
2022-08-19T06:20:04.313Z,986.77
2022-08-19T06:21:04.312Z,986.83
2022-08-19T06:22:04.302Z,986.80
2022-08-19T06:23:04.420Z,986.83
2022-08-19T06:24:05.309Z,986.88
2022-08-19T06:25:04.296Z,986.83
2022-08-19T06:26:04.282Z,986.83
2022-08-19T06:27:04.278Z,986.82
2022-08-19T06:28:19.132Z,986.84
2022-08-19T06:29:06.257Z,986.96
2022-08-19T06:30:04.272Z,986.93
2022-08-19T06:31:04.285Z,986.94
2022-08-19T06:32:04.238Z,986.99
2022-08-19T06:33:04.234Z,986.94
2022-08-19T06:34:04.257Z,986.92
2022-08-19T06:35:04.249Z,987.02
2022-08-19T06:36:04.234Z,987.01
2022-08-19T06:37:04.221Z,987.09
2022-08-19T06:38:04.228Z,987.07
2022-08-19T06:39:04.246Z,987.10
2022-08-19T06:40:04.232Z,987.08
2022-08-19T06:41:07.335Z,987.13
2022-08-19T06:42:04.215Z,987.20
2022-08-19T06:43:04.195Z,987.13
2022-08-19T06:44:04.165Z,987.25
2022-08-19T06:45:04.222Z,987.28
2022-08-19T06:46:05.180Z,987.31
2022-08-19T06:47:09.607Z,987.33
2022-08-19T06:48:05.167Z,987.41
2022-08-19T06:49:04.177Z,987.43
2022-08-19T06:50:05.464Z,987.45
2022-08-19T06:51:04.159Z,987.41
2022-08-19T06:52:04.132Z,987.46
2022-08-19T06:53:04.743Z,987.48
2022-08-19T06:54:04.137Z,987.45
2022-08-19T06:55:06.384Z,987.41
2022-08-19T06:56:04.134Z,987.40
2022-08-19T06:57:04.119Z,987.44
2022-08-19T06:58:04.099Z,987.35
2022-08-19T06:59:04.113Z,987.33
2022-08-19T07:00:04.079Z,987.39
2022-08-19T07:01:07.096Z,987.37
2022-08-19T07:02:05.208Z,987.40
2022-08-19T07:03:07.725Z,987.30
2022-08-19T07:04:04.064Z,987.36
2022-08-19T07:05:04.075Z,987.43
2022-08-19T07:06:05.385Z,987.34
2022-08-19T07:07:19.563Z,987.37
2022-08-19T07:08:05.164Z,987.43
2022-08-19T07:09:04.054Z,987.41
2022-08-19T07:10:06.118Z,987.41
2022-08-19T07:11:04.044Z,987.45
2022-08-19T07:12:04.067Z,987.40
2022-08-19T07:13:04.026Z,987.34
2022-08-19T07:14:04.024Z,987.39
2022-08-19T07:15:04.034Z,987.42
2022-08-19T07:16:05.621Z,987.42
2022-08-19T07:17:04.023Z,987.48
2022-08-19T07:18:04.100Z,987.46
2022-08-19T07:19:14.486Z,987.43
2022-08-19T07:20:09.470Z,987.45
2022-08-19T07:21:05.063Z,987.42
2022-08-19T07:22:03.984Z,987.51
2022-08-19T07:23:07.191Z,987.50
2022-08-19T07:24:06.747Z,987.53
2022-08-19T07:25:03.962Z,987.50
2022-08-19T07:27:10.336Z,987.49
2022-08-19T07:28:05.000Z,987.52
2022-08-19T07:29:03.973Z,987.58
2022-08-19T07:30:03.933Z,987.53
2022-08-19T07:31:03.939Z,987.49
2022-08-19T07:32:03.918Z,987.54
2022-08-19T07:33:04.952Z,987.52
2022-08-19T07:34:04.135Z,987.45
2022-08-19T07:35:03.913Z,987.55
2022-08-19T07:36:03.987Z,987.51
2022-08-19T07:37:03.904Z,987.54
2022-08-19T07:38:03.904Z,987.49
2022-08-19T07:39:04.010Z,987.46
2022-08-19T07:40:03.941Z,987.44
2022-08-19T07:41:03.881Z,987.45
2022-08-19T07:42:03.881Z,987.49
2022-08-19T07:43:03.874Z,987.48
2022-08-19T07:44:03.873Z,987.40
2022-08-19T07:45:03.882Z,987.42
2022-08-19T07:46:03.890Z,987.40
2022-08-19T07:47:03.848Z,987.45
2022-08-19T07:48:04.310Z,987.45
2022-08-19T07:49:03.832Z,987.49
2022-08-19T07:50:03.862Z,987.47
2022-08-19T07:51:03.830Z,987.45
2022-08-19T07:52:03.827Z,987.46
2022-08-19T07:53:03.820Z,987.50
2022-08-19T07:54:03.797Z,987.45
2022-08-19T07:55:03.805Z,987.46
2022-08-19T07:56:03.824Z,987.51
2022-08-19T07:57:03.779Z,987.48
2022-08-19T07:58:03.784Z,987.49
2022-08-19T07:59:03.756Z,987.51
2022-08-19T08:00:03.774Z,987.49
2022-08-19T08:01:03.794Z,987.52
2022-08-19T08:02:03.787Z,987.56
2022-08-19T08:03:03.761Z,987.51
2022-08-19T08:04:03.768Z,987.57
2022-08-19T08:05:03.753Z,987.61
2022-08-19T08:06:03.744Z,987.65
2022-08-19T08:07:03.750Z,987.60
2022-08-19T08:08:03.735Z,987.60
2022-08-19T08:09:03.726Z,987.63
2022-08-19T08:10:03.833Z,987.60
2022-08-19T08:11:03.707Z,987.66
2022-08-19T08:12:17.963Z,987.62
2022-08-19T08:13:10.150Z,987.70
2022-08-19T08:14:04.773Z,987.72
2022-08-19T08:15:03.683Z,987.74
2022-08-19T08:16:03.678Z,987.70
2022-08-19T08:17:03.674Z,987.76
2022-08-19T08:18:04.815Z,987.76
2022-08-19T08:19:03.663Z,987.77
2022-08-19T08:20:04.660Z,987.78
2022-08-19T08:21:03.661Z,987.82
2022-08-19T08:22:03.673Z,987.84
2022-08-19T08:23:03.680Z,987.84
2022-08-19T08:24:03.656Z,987.90
2022-08-19T08:25:03.640Z,987.95
2022-08-19T08:26:03.613Z,987.97
2022-08-19T08:27:03.631Z,987.97
2022-08-19T08:28:03.624Z,987.91
2022-08-19T08:29:13.026Z,987.93
2022-08-19T08:30:03.598Z,987.96
2022-08-19T08:31:03.586Z,987.92
2022-08-19T08:32:14.060Z,987.90
2022-08-19T08:33:03.623Z,987.94
2022-08-19T08:34:03.681Z,987.96
2022-08-19T08:35:03.577Z,987.93
2022-08-19T08:36:04.162Z,987.95
2022-08-19T08:37:03.570Z,987.97
2022-08-19T08:38:03.575Z,988.03
2022-08-19T08:39:03.560Z,988.04
2022-08-19T08:40:03.606Z,988.02
2022-08-19T08:41:03.555Z,988.01
2022-08-19T08:42:10.187Z,988.01
2022-08-19T08:44:03.525Z,988.04
2022-08-19T08:45:03.622Z,988.07
2022-08-19T08:46:03.529Z,988.06
2022-08-19T08:47:03.544Z,988.07
2022-08-19T08:48:03.519Z,988.11
2022-08-19T08:49:03.498Z,988.05
2022-08-19T08:50:03.546Z,988.00
2022-08-19T08:51:03.595Z,988.01
2022-08-19T08:52:03.489Z,987.93
2022-08-19T08:53:03.486Z,987.96
2022-08-19T08:54:03.491Z,987.97
2022-08-19T08:55:03.469Z,987.98
2022-08-19T08:56:04.508Z,987.93
2022-08-19T08:57:03.467Z,987.90
2022-08-19T08:58:03.464Z,987.90
2022-08-19T08:59:03.470Z,987.90
2022-08-19T09:00:03.469Z,987.91
2022-08-19T09:01:03.464Z,987.92
2022-08-19T09:02:03.584Z,987.86
2022-08-19T09:03:03.442Z,987.83
2022-08-19T09:04:03.873Z,987.87
2022-08-19T09:05:03.443Z,987.89
2022-08-19T09:06:03.421Z,987.85
2022-08-19T09:07:03.429Z,987.90
2022-08-19T09:08:04.408Z,987.87
2022-08-19T09:09:03.412Z,987.87
2022-08-19T09:10:03.398Z,987.94
2022-08-19T09:11:03.395Z,987.95
2022-08-19T09:12:03.373Z,987.96
2022-08-19T09:13:03.390Z,987.89
2022-08-19T09:14:04.370Z,987.94
2022-08-19T09:15:03.380Z,987.92
2022-08-19T09:16:03.378Z,987.92
2022-08-19T09:17:03.368Z,987.80
2022-08-19T09:18:03.373Z,987.82
2022-08-19T09:19:03.330Z,987.88
2022-08-19T09:20:03.331Z,987.87
2022-08-19T09:21:03.347Z,987.87
2022-08-19T09:22:03.321Z,987.80
2022-08-19T09:23:03.338Z,987.83
2022-08-19T09:24:03.749Z,987.88
2022-08-19T09:25:03.322Z,987.86
2022-08-19T09:26:03.321Z,987.82
2022-08-19T09:27:07.971Z,987.83
2022-08-19T09:28:05.896Z,987.80
2022-08-19T09:29:04.422Z,987.83
2022-08-19T09:30:03.300Z,987.71
2022-08-19T09:31:03.278Z,987.73
2022-08-19T09:32:03.296Z,987.64
2022-08-19T09:33:03.278Z,987.67
2022-08-19T09:34:03.292Z,987.71
2022-08-19T09:35:03.510Z,987.72
2022-08-19T09:36:04.264Z,987.70
2022-08-19T09:37:03.258Z,987.71
2022-08-19T09:38:03.237Z,987.65
2022-08-19T09:39:03.229Z,987.82
2022-08-19T09:40:03.332Z,987.82
2022-08-19T09:41:03.238Z,987.79
2022-08-19T09:42:03.225Z,987.74
2022-08-19T09:43:03.215Z,987.68
2022-08-19T09:44:04.217Z,987.74
2022-08-19T09:45:05.006Z,987.75
2022-08-19T09:46:03.335Z,987.75
2022-08-19T09:47:03.209Z,987.82
2022-08-19T09:48:35.944Z,987.80
2022-08-19T09:49:06.665Z,987.76
2022-08-19T09:50:03.190Z,987.83
2022-08-19T09:51:03.205Z,987.82
2022-08-19T09:52:03.186Z,987.80
2022-08-19T09:53:03.181Z,987.82
2022-08-19T09:54:04.535Z,987.80
2022-08-19T09:55:07.358Z,987.81
2022-08-19T09:56:04.199Z,987.84
2022-08-19T09:57:03.747Z,987.82
2022-08-19T09:58:03.160Z,987.82
2022-08-19T09:59:03.143Z,987.77
2022-08-19T10:00:03.132Z,987.74
2022-08-19T10:01:03.157Z,987.81
2022-08-19T10:02:03.931Z,987.70
2022-08-19T10:03:03.504Z,987.71
2022-08-19T10:04:07.671Z,987.71
2022-08-19T10:05:04.104Z,987.72
2022-08-19T10:06:03.102Z,987.70
2022-08-19T10:07:03.095Z,987.67
2022-08-19T10:08:04.466Z,987.72
2022-08-19T10:09:03.084Z,987.67
2022-08-19T10:10:03.086Z,987.67
2022-08-19T10:11:27.345Z,987.76
2022-08-19T10:12:04.097Z,987.69
2022-08-19T10:13:03.121Z,987.67
2022-08-19T10:14:03.067Z,987.59
2022-08-19T10:15:03.053Z,987.55
2022-08-19T10:16:03.074Z,987.53
2022-08-19T10:17:04.588Z,987.60
2022-08-19T10:18:03.038Z,987.61
2022-08-19T10:19:03.670Z,987.56
2022-08-19T10:20:03.055Z,987.60
2022-08-19T10:21:03.036Z,987.55
2022-08-19T10:22:03.026Z,987.56
2022-08-19T10:23:03.051Z,987.57
2022-08-19T10:24:03.054Z,987.54
2022-08-19T10:25:03.026Z,987.54
2022-08-19T10:26:03.093Z,987.48
2022-08-19T10:27:02.995Z,987.50
2022-08-19T10:28:03.010Z,987.49
2022-08-19T10:29:03.009Z,987.43
2022-08-19T10:30:03.111Z,987.43
2022-08-19T10:31:02.995Z,987.48
2022-08-19T10:32:03.378Z,987.46
2022-08-19T10:33:08.465Z,987.50
2022-08-19T10:34:04.955Z,987.48
2022-08-19T10:35:02.976Z,987.42
2022-08-19T10:36:02.966Z,987.41
2022-08-19T10:37:02.954Z,987.32
2022-08-19T10:38:03.236Z,987.40
2022-08-19T10:39:02.935Z,987.31
2022-08-19T10:40:03.053Z,987.32
2022-08-19T10:41:02.959Z,987.32
2022-08-19T10:42:02.941Z,987.27
2022-08-19T10:43:02.930Z,987.30
2022-08-19T10:44:04.371Z,987.26
2022-08-19T10:45:02.979Z,987.25
2022-08-19T10:46:03.110Z,987.25
2022-08-19T10:47:02.907Z,987.29
2022-08-19T10:48:02.875Z,987.35
2022-08-19T10:49:02.901Z,987.34
2022-08-19T10:50:02.878Z,987.33
2022-08-19T10:51:02.889Z,987.27
2022-08-19T10:52:03.004Z,987.23
2022-08-19T10:53:02.865Z,987.25
2022-08-19T10:54:03.868Z,987.27
2022-08-19T10:55:05.364Z,987.32
2022-08-19T10:56:03.868Z,987.34
2022-08-19T10:57:02.951Z,987.29
2022-08-19T10:58:03.014Z,987.31
2022-08-19T10:59:02.826Z,987.35
2022-08-19T11:00:02.818Z,987.31
2022-08-19T11:01:02.873Z,987.40
2022-08-19T11:02:02.810Z,987.34
2022-08-19T11:03:02.917Z,987.31
2022-08-19T11:04:02.793Z,987.30
2022-08-19T11:05:05.575Z,987.28
2022-08-19T11:06:04.781Z,987.33
2022-08-19T11:07:02.789Z,987.17
2022-08-19T11:08:02.968Z,987.21
2022-08-19T11:09:03.779Z,987.24
2022-08-19T11:10:02.809Z,987.21
2022-08-19T11:11:02.768Z,987.25
2022-08-19T11:12:04.654Z,987.22
2022-08-19T11:13:03.869Z,987.24
2022-08-19T11:14:02.760Z,987.15
2022-08-19T11:15:02.749Z,987.25
2022-08-19T11:16:06.802Z,987.22
2022-08-19T11:17:04.738Z,987.25
2022-08-19T11:18:02.733Z,987.25
2022-08-19T11:19:02.904Z,987.23
2022-08-19T11:20:02.735Z,987.25
2022-08-19T11:21:02.714Z,987.18
2022-08-19T11:22:02.775Z,987.25
2022-08-19T11:23:02.717Z,987.25
2022-08-19T11:24:02.739Z,987.28
2022-08-19T11:25:02.691Z,987.23
2022-08-19T11:26:02.698Z,987.18
2022-08-19T11:27:02.693Z,987.15
2022-08-19T11:28:02.687Z,987.10
2022-08-19T11:29:02.776Z,987.11
2022-08-19T11:30:02.779Z,987.11
2022-08-19T11:31:02.665Z,987.00
2022-08-19T11:32:02.661Z,987.07
2022-08-19T11:33:02.670Z,987.06
2022-08-19T11:34:02.686Z,987.10
2022-08-19T11:35:02.699Z,987.13
2022-08-19T11:36:02.653Z,987.13
2022-08-19T11:37:02.629Z,987.15
2022-08-19T11:38:02.629Z,987.10
2022-08-19T11:39:02.611Z,987.16
2022-08-19T11:40:02.748Z,987.13
2022-08-19T11:41:02.642Z,987.19
2022-08-19T11:42:02.622Z,987.16
2022-08-19T11:43:02.606Z,987.16
2022-08-19T11:44:02.599Z,987.22
2022-08-19T11:45:02.582Z,987.12
2022-08-19T11:46:02.708Z,987.11
2022-08-19T11:47:08.893Z,987.18
2022-08-19T11:48:02.579Z,987.22
2022-08-19T11:49:02.597Z,987.15
2022-08-19T11:50:02.559Z,987.15
2022-08-19T11:51:02.572Z,987.20
2022-08-19T11:52:02.590Z,987.18
2022-08-19T11:53:02.556Z,987.22
2022-08-19T11:54:02.534Z,987.23
2022-08-19T11:55:02.543Z,987.16
2022-08-19T11:56:02.546Z,987.15
2022-08-19T11:57:02.560Z,987.10
2022-08-19T11:58:02.519Z,987.12
2022-08-19T11:59:02.522Z,987.11
2022-08-19T12:00:02.526Z,987.11
2022-08-19T12:01:02.512Z,987.11
2022-08-19T12:02:02.513Z,987.07
2022-08-19T12:03:02.531Z,987.11
2022-08-19T12:04:02.551Z,987.12
2022-08-19T12:05:02.506Z,987.09
2022-08-19T12:06:02.478Z,987.17
2022-08-19T12:07:02.481Z,987.22
2022-08-19T12:08:02.496Z,987.13
2022-08-19T12:09:02.468Z,987.20
2022-08-19T12:10:02.457Z,987.23
2022-08-19T12:11:02.474Z,987.19
2022-08-19T12:12:02.461Z,987.17
2022-08-19T12:13:02.474Z,987.13
2022-08-19T12:14:02.466Z,987.18
2022-08-19T12:15:02.432Z,987.19
2022-08-19T12:16:02.439Z,987.15
2022-08-19T12:17:02.439Z,987.14
2022-08-19T12:18:02.426Z,987.15
2022-08-19T12:19:02.466Z,987.15
2022-08-19T12:20:02.417Z,987.17
2022-08-19T12:21:02.470Z,987.16
2022-08-19T12:22:02.403Z,987.14
2022-08-19T12:23:02.403Z,987.11
2022-08-19T12:24:02.386Z,987.12
2022-08-19T12:25:02.505Z,987.17
2022-08-19T12:26:02.367Z,987.17
2022-08-19T12:27:03.169Z,987.15
2022-08-19T12:28:02.802Z,987.09
2022-08-19T12:29:02.379Z,987.10
2022-08-19T12:30:02.368Z,987.06